Time;durP1;ratioP1;P1;durP2;ratioP2;P2;SDS_P1;SDS_P2;PMS_P1;PMS_P2;Temp;Humidity;BMP_temperature;BMP_pressure;BME280_temperature;BME280_humidity;BME280_pressure;Samples;Min_cycle;Max_cycle;Signal;HPM_P1;HPM_P2
2023/03/11 00:02:11;;;;;;;5.18;1.92;;;0.00;99.90;;;;;;5035461;28;20076;-69
2023/03/11 00:04:37;;;;;;;3.20;1.30;;;0.10;99.90;;;;;;5046014;28;20488;-70
2023/03/11 00:07:07;;;;;;;4.13;2.00;;;0.00;99.90;;;;;;5025686;28;20082;-70
2023/03/11 00:09:33;;;;;;;6.05;1.63;;;0.10;99.90;;;;;;5036839;28;20045;-69
2023/03/11 00:11:58;;;;;;;4.22;1.33;;;0.10;99.90;;;;;;5035338;28;20036;-70
2023/03/11 00:14:24;;;;;;;7.88;1.58;;;0.10;99.90;;;;;;5045266;28;20045;-69
2023/03/11 00:16:49;;;;;;;6.05;1.60;;;0.10;99.90;;;;;;5048163;28;20040;-70
2023/03/11 00:19:15;;;;;;;3.95;1.42;;;0.10;99.90;;;;;;5015647;28;20029;-69
2023/03/11 00:21:41;;;;;;;6.20;1.80;;;0.10;99.90;;;;;;5053196;28;20041;-70
2023/03/11 00:24:07;;;;;;;6.35;1.65;;;0.10;99.90;;;;;;5017809;28;20507;-69
2023/03/11 00:26:32;;;;;;;7.38;1.50;;;0.10;99.90;;;;;;5042326;28;20082;-70
2023/03/11 00:28:58;;;;;;;5.20;1.73;;;0.10;99.90;;;;;;5026044;28;20029;-70
2023/03/11 00:31:25;;;;;;;7.18;1.88;;;0.10;99.90;;;;;;5037271;28;20908;-70
2023/03/11 00:33:51;;;;;;;6.43;1.83;;;0.10;99.90;;;;;;5042310;28;20385;-70
2023/03/11 00:36:32;;;;;;;4.30;1.45;;;0.10;99.90;;;;;;5034147;28;20126;-69
2023/03/11 00:38:59;;;;;;;8.55;1.60;;;0.10;99.90;;;;;;5030205;28;20045;-70
2023/03/11 00:41:24;;;;;;;5.22;1.73;;;0.10;99.90;;;;;;5045530;28;20076;-69
2023/03/11 00:43:50;;;;;;;8.30;1.65;;;0.10;99.90;;;;;;5044672;28;20060;-70
2023/03/11 00:46:16;;;;;;;8.82;1.52;;;0.10;99.90;;;;;;5031698;28;20049;-70
2023/03/11 00:48:41;;;;;;;7.32;1.95;;;0.00;99.90;;;;;;5042819;28;20037;-69
2023/03/11 00:51:12;;;;;;;4.80;1.42;;;0.10;99.90;;;;;;5056938;28;20052;-69
2023/03/11 00:53:38;;;;;;;4.22;1.38;;;0.10;99.90;;;;;;5017397;28;20051;-69
2023/03/11 00:56:14;;;;;;;10.25;1.92;;;0.10;99.90;;;;;;5018305;28;20029;-69
2023/03/11 00:58:42;;;;;;;6.20;1.52;;;0.10;99.90;;;;;;5027949;28;20048;-69
2023/03/11 01:01:13;;;;;;;5.30;1.55;;;0.10;99.90;;;;;;5042777;28;20052;-70
2023/03/11 01:03:40;;;;;;;5.05;1.63;;;0.00;99.90;;;;;;5046074;28;20040;-70
2023/03/11 01:06:07;;;;;;;4.47;1.67;;;0.00;99.90;;;;;;5047817;28;20051;-69
2023/03/11 01:08:33;;;;;;;6.70;1.55;;;0.00;99.90;;;;;;5032491;28;20041;-69
2023/03/11 01:10:59;;;;;;;3.42;1.48;;;0.00;99.90;;;;;;5042835;28;20048;-70
2023/03/11 01:13:26;;;;;;;7.13;1.75;;;0.00;99.90;;;;;;5024920;28;20048;-69
2023/03/11 01:15:52;;;;;;;4.03;1.50;;;0.00;99.90;;;;;;5042443;28;20037;-69
2023/03/11 01:18:19;;;;;;;5.50;1.90;;;0.00;99.90;;;;;;5042728;28;20037;-70
2023/03/11 01:20:45;;;;;;;6.13;1.52;;;0.00;99.90;;;;;;5046953;28;20063;-70
2023/03/11 01:23:13;;;;;;;8.07;1.60;;;0.00;99.90;;;;;;5041972;28;20052;-70
2023/03/11 01:25:38;;;;;;;3.13;1.30;;;0.00;99.90;;;;;;5041939;28;20037;-70
2023/03/11 01:28:05;;;;;;;6.30;2.40;;;0.00;99.90;;;;;;5042957;28;20151;-70
2023/03/11 01:30:30;;;;;;;7.68;1.77;;;0.00;99.90;;;;;;5045022;28;20378;-69
2023/03/11 01:32:57;;;;;;;5.43;1.73;;;0.00;99.90;;;;;;5046980;28;20101;-69
2023/03/11 01:35:24;;;;;;;7.47;2.22;;;0.00;99.90;;;;;;5020411;28;20080;-68
2023/03/11 01:37:51;;;;;;;6.93;1.60;;;0.00;99.90;;;;;;5034251;28;20045;-70
2023/03/11 01:40:34;;;;;;;8.20;1.73;;;0.00;99.90;;;;;;5029078;28;20103;-69
2023/03/11 01:43:00;;;;;;;5.15;1.50;;;0.00;99.90;;;;;;5034834;28;20778;-69
2023/03/11 01:45:38;;;;;;;6.72;1.30;;;0.00;99.90;;;;;;5036313;28;20037;-69
2023/03/11 01:48:03;;;;;;;4.22;1.58;;;0.00;99.90;;;;;;5029964;28;20393;-69
2023/03/11 01:50:42;;;;;;;8.43;1.75;;;-0.10;99.90;;;;;;5046532;28;20082;-68
2023/03/11 01:53:09;;;;;;;4.70;1.10;;;0.00;99.90;;;;;;5027102;28;20071;-69
2023/03/11 01:55:35;;;;;;;2.50;1.25;;;-0.10;99.90;;;;;;5033692;28;20045;-68
2023/03/11 01:58:06;;;;;;;4.80;1.75;;;-0.10;99.90;;;;;;5040905;28;20047;-70
2023/03/11 02:00:32;;;;;;;4.25;1.80;;;-0.10;99.90;;;;;;5045919;28;20418;-69
2023/03/11 02:03:01;;;;;;;4.05;1.50;;;-0.10;99.90;;;;;;5054405;28;20136;-68
2023/03/11 02:05:27;;;;;;;2.90;1.23;;;-0.10;99.90;;;;;;5054313;28;20370;-69
2023/03/11 02:07:54;;;;;;;4.57;1.48;;;-0.10;99.90;;;;;;5038530;28;20052;-69
2023/03/11 02:10:20;;;;;;;3.67;1.50;;;-0.10;99.90;;;;;;5038740;28;20049;-69
2023/03/11 02:12:47;;;;;;;4.43;1.50;;;-0.10;99.90;;;;;;5054297;28;20125;-69
2023/03/11 02:15:13;;;;;;;5.28;1.10;;;0.00;99.90;;;;;;5046480;28;20025;-69
2023/03/11 02:17:41;;;;;;;5.32;1.40;;;-0.10;99.90;;;;;;5037372;28;20093;-69
2023/03/11 02:20:12;;;;;;;8.73;1.30;;;-0.10;99.90;;;;;;5054232;28;20048;-69
2023/03/11 02:22:41;;;;;;;5.72;1.42;;;-0.10;99.90;;;;;;5052926;28;20115;-68
2023/03/11 02:25:17;;;;;;;3.33;1.37;;;-0.10;99.90;;;;;;5022229;28;20032;-68
2023/03/11 02:27:46;;;;;;;3.35;1.30;;;-0.10;99.90;;;;;;5050444;28;20044;-69
2023/03/11 02:30:14;;;;;;;4.68;1.60;;;-0.20;99.90;;;;;;5037856;28;20045;-69
2023/03/11 02:32:43;;;;;;;4.15;1.63;;;-0.20;99.90;;;;;;5046416;28;20424;-69
2023/03/11 02:35:08;;;;;;;5.45;1.17;;;-0.20;99.90;;;;;;5048597;28;20037;-69
2023/03/11 02:37:34;;;;;;;7.72;1.90;;;-0.20;99.90;;;;;;5036503;28;20050;-68
2023/03/11 02:40:19;;;;;;;5.43;1.40;;;-0.30;99.90;;;;;;5045617;28;20056;-68
2023/03/11 02:42:44;;;;;;;4.43;1.10;;;-0.30;99.90;;;;;;5043383;28;20467;-68
2023/03/11 02:45:13;;;;;;;3.63;1.10;;;-0.40;99.90;;;;;;5039955;28;20049;-68
2023/03/11 02:47:40;;;;;;;6.40;1.37;;;-0.40;99.90;;;;;;5037396;28;20408;-69
2023/03/11 02:50:08;;;;;;;3.65;1.80;;;-0.40;99.90;;;;;;5033732;28;20064;-68
2023/03/11 02:52:35;;;;;;;5.82;1.27;;;-0.40;99.90;;;;;;5039687;28;20049;-68
2023/03/11 02:55:00;;;;;;;6.25;1.00;;;-0.40;99.90;;;;;;5038729;28;20036;-68
2023/03/11 02:57:26;;;;;;;4.20;1.10;;;-0.50;99.90;;;;;;5034064;28;20485;-68
2023/03/11 02:59:52;;;;;;;5.05;1.75;;;-0.50;99.90;;;;;;5038738;28;20060;-69
2023/03/11 03:02:17;;;;;;;5.82;1.05;;;-0.40;99.90;;;;;;5040517;28;20064;-68
2023/03/11 03:04:43;;;;;;;3.35;1.10;;;-0.50;99.90;;;;;;5048226;28;20036;-68
2023/03/11 03:07:09;;;;;;;6.78;1.35;;;-0.40;99.90;;;;;;5052030;28;20045;-68
2023/03/11 03:09:35;;;;;;;3.90;1.20;;;-0.40;99.90;;;;;;5041320;28;20045;-68
2023/03/11 03:12:02;;;;;;;3.10;1.25;;;-0.40;99.90;;;;;;5035608;28;20050;-68
2023/03/11 03:14:28;;;;;;;3.67;1.02;;;-0.40;99.90;;;;;;5045012;28;20072;-68
2023/03/11 03:16:53;;;;;;;4.38;1.15;;;-0.40;99.90;;;;;;5050061;28;20432;-68
2023/03/11 03:19:19;;;;;;;2.95;1.00;;;-0.40;99.90;;;;;;5041930;28;20028;-68
2023/03/11 03:21:45;;;;;;;6.05;1.23;;;-0.40;99.90;;;;;;5046704;28;20060;-68
2023/03/11 03:24:10;;;;;;;2.90;1.02;;;-0.50;99.90;;;;;;5050742;28;20120;-68
2023/03/11 03:26:36;;;;;;;3.97;1.20;;;-0.60;99.90;;;;;;5036881;28;20546;-68
2023/03/11 03:29:03;;;;;;;4.25;1.20;;;-0.60;99.90;;;;;;5044040;28;20036;-68
2023/03/11 03:31:28;;;;;;;4.07;1.30;;;-0.60;99.90;;;;;;5026671;28;20041;-68
2023/03/11 03:33:54;;;;;;;1.48;1.00;;;-0.70;99.90;;;;;;5039002;28;20041;-68
2023/03/11 03:36:20;;;;;;;4.57;1.10;;;-0.70;99.90;;;;;;5038963;28;20048;-68
2023/03/11 03:38:46;;;;;;;6.38;1.00;;;-0.80;99.90;;;;;;5049364;28;20033;-68
2023/03/11 03:41:14;;;;;;;4.70;1.20;;;-0.80;99.90;;;;;;5042064;28;20091;-68
2023/03/11 03:43:40;;;;;;;5.70;1.30;;;-0.90;99.90;;;;;;5046673;28;20600;-68
2023/03/11 03:46:06;;;;;;;2.63;1.08;;;-0.90;99.90;;;;;;5042075;28;20435;-68
2023/03/11 03:48:32;;;;;;;1.83;0.90;;;-1.00;99.90;;;;;;5036052;28;20029;-69
2023/03/11 03:51:06;;;;;;;3.17;1.20;;;-1.10;99.90;;;;;;5029830;28;20172;-68
2023/03/11 03:53:33;;;;;;;3.63;0.90;;;-1.10;99.90;;;;;;5039163;28;20045;-68
2023/03/11 03:56:05;;;;;;;5.38;1.55;;;-1.20;99.90;;;;;;5038375;28;20037;-68
2023/03/11 03:58:30;;;;;;;2.92;1.02;;;-1.10;99.90;;;;;;5029305;28;20049;-68
2023/03/11 04:00:57;;;;;;;3.45;1.30;;;-1.20;99.90;;;;;;5031935;28;20434;-68
2023/03/11 04:03:23;;;;;;;5.38;1.05;;;-1.30;99.90;;;;;;5034445;28;20083;-68
2023/03/11 04:05:49;;;;;;;4.25;1.23;;;-1.30;99.90;;;;;;5034318;28;20042;-68
2023/03/11 04:08:15;;;;;;;3.97;1.23;;;-1.40;99.90;;;;;;5032106;28;20045;-69
2023/03/11 04:10:40;;;;;;;2.75;1.08;;;-1.40;99.90;;;;;;5032370;28;20124;-67
2023/03/11 04:13:06;;;;;;;2.15;0.88;;;-1.40;99.90;;;;;;5035838;28;20044;-69
2023/03/11 04:15:31;;;;;;;2.30;1.00;;;-1.50;99.90;;;;;;5048148;28;20044;-69
2023/03/11 04:17:57;;;;;;;3.05;1.00;;;-1.50;99.90;;;;;;5051088;28;20469;-69
2023/03/11 04:20:22;;;;;;;3.65;1.20;;;-1.60;99.90;;;;;;5036118;28;20037;-68
2023/03/11 04:22:48;;;;;;;2.95;1.63;;;-1.70;99.90;;;;;;5050650;28;20044;-69
2023/03/11 04:25:13;;;;;;;7.70;2.08;;;-1.80;99.90;;;;;;5042748;28;20087;-68
2023/03/11 04:27:42;;;;;;;4.70;1.80;;;-1.90;99.90;;;;;;5014086;28;20091;-68
2023/03/11 04:30:08;;;;;;;5.03;2.47;;;-1.90;99.90;;;;;;5014696;28;20036;-68
2023/03/11 04:32:34;;;;;;;3.85;1.95;;;-1.90;99.90;;;;;;5037228;28;20052;-68
2023/03/11 04:34:59;;;;;;;3.28;1.70;;;-2.00;99.90;;;;;;5035342;28;20116;-70
2023/03/11 04:37:29;;;;;;;4.60;1.50;;;-2.10;99.90;;;;;;5047267;28;20538;-68
2023/03/11 04:39:54;;;;;;;3.25;1.65;;;-2.10;99.90;;;;;;5044551;28;20542;-68
2023/03/11 04:42:20;;;;;;;2.83;1.50;;;-2.10;99.90;;;;;;5034392;28;20041;-69
2023/03/11 04:44:45;;;;;;;3.90;1.55;;;-2.20;99.90;;;;;;5016802;28;20049;-69
2023/03/11 04:47:11;;;;;;;4.88;1.25;;;-2.10;99.90;;;;;;5021055;28;20036;-68
2023/03/11 04:49:37;;;;;;;3.40;2.00;;;-2.20;99.90;;;;;;5037455;28;20152;-68
2023/03/11 04:52:02;;;;;;;2.97;1.30;;;-2.10;99.90;;;;;;5030092;28;20056;-69
2023/03/11 04:54:28;;;;;;;4.13;1.35;;;-2.20;99.90;;;;;;5039304;28;20037;-69
2023/03/11 04:56:54;;;;;;;3.00;1.20;;;-2.10;99.90;;;;;;5036794;28;20271;-68
2023/03/11 04:59:19;;;;;;;4.00;1.20;;;-2.20;99.90;;;;;;5039325;28;20103;-68
2023/03/11 05:01:45;;;;;;;2.95;1.40;;;-2.30;99.90;;;;;;5038134;28;20049;-69
2023/03/11 05:04:11;;;;;;;2.92;1.08;;;-2.30;99.90;;;;;;5043784;28;20124;-68
2023/03/11 05:06:37;;;;;;;2.63;1.02;;;-2.30;99.90;;;;;;5044784;28;20040;-68
2023/03/11 05:09:03;;;;;;;5.85;1.45;;;-2.30;99.90;;;;;;5042065;28;20564;-69
2023/03/11 05:11:29;;;;;;;2.58;1.10;;;-2.40;99.90;;;;;;5015272;28;20057;-68
2023/03/11 05:13:55;;;;;;;2.30;1.10;;;-2.40;99.90;;;;;;5043588;28;20142;-68
2023/03/11 05:16:21;;;;;;;3.15;1.30;;;-2.40;99.90;;;;;;5038292;28;20068;-70
2023/03/11 05:18:46;;;;;;;4.97;1.50;;;-2.40;99.90;;;;;;5036788;28;20045;-69
2023/03/11 05:21:12;;;;;;;3.28;1.35;;;-2.40;99.90;;;;;;5033790;28;20351;-69
2023/03/11 05:23:38;;;;;;;4.18;1.33;;;-2.40;99.90;;;;;;5044878;28;20101;-69
2023/03/11 05:26:04;;;;;;;2.78;1.23;;;-2.40;99.90;;;;;;5044787;28;20099;-70
2023/03/11 05:28:29;;;;;;;1.55;1.00;;;-2.50;99.90;;;;;;5040344;28;20082;-69
2023/03/11 05:30:55;;;;;;;3.78;1.27;;;-2.50;99.90;;;;;;5044411;28;20037;-69
2023/03/11 05:33:20;;;;;;;2.00;0.98;;;-2.50;99.90;;;;;;5035077;28;20499;-69
2023/03/11 05:35:46;;;;;;;5.88;1.50;;;-2.50;99.90;;;;;;5041172;28;20442;-69
2023/03/11 05:38:11;;;;;;;1.30;1.20;;;-2.60;99.90;;;;;;5043828;28;20150;-69
2023/03/11 05:40:37;;;;;;;2.65;1.38;;;-2.60;99.90;;;;;;5024450;28;20057;-70
2023/03/11 05:43:03;;;;;;;2.30;1.50;;;-2.60;99.90;;;;;;5032774;28;20446;-70
2023/03/11 05:45:28;;;;;;;2.90;1.30;;;-2.60;99.90;;;;;;5009766;28;20084;-70
2023/03/11 05:47:54;;;;;;;4.78;1.50;;;-2.60;99.90;;;;;;5031106;28;20044;-70
2023/03/11 05:50:20;;;;;;;3.70;1.52;;;-2.60;99.90;;;;;;5042494;28;20037;-70
2023/03/11 05:52:45;;;;;;;6.22;1.75;;;-2.50;99.90;;;;;;5034682;28;20061;-70
2023/03/11 05:55:11;;;;;;;5.15;1.52;;;-2.60;99.90;;;;;;5039207;28;20030;-71
2023/03/11 05:57:38;;;;;;;5.10;1.55;;;-2.60;99.90;;;;;;5031922;28;20590;-70
2023/03/11 06:00:06;;;;;;;2.85;1.48;;;-2.60;99.90;;;;;;5019397;28;20139;-69
2023/03/11 06:02:31;;;;;;;2.85;1.45;;;-2.60;99.90;;;;;;5050408;28;20049;-70
2023/03/11 06:04:57;;;;;;;2.58;1.30;;;-2.60;99.90;;;;;;5050877;28;20409;-70
2023/03/11 06:07:23;;;;;;;4.57;1.70;;;-2.60;99.90;;;;;;5037909;28;20049;-71
2023/03/11 06:09:51;;;;;;;3.78;1.77;;;-2.60;99.90;;;;;;5029907;28;20427;-71
2023/03/11 06:12:17;;;;;;;2.38;1.17;;;-2.60;99.90;;;;;;5030455;28;20089;-70
2023/03/11 06:14:42;;;;;;;2.92;1.35;;;-2.60;99.90;;;;;;5044424;28;20065;-71
2023/03/11 06:17:08;;;;;;;4.30;1.52;;;-2.60;99.90;;;;;;5023435;28;20120;-70
2023/03/11 06:19:34;;;;;;;4.13;1.33;;;-2.60;99.90;;;;;;5051474;28;20033;-70
2023/03/11 06:21:59;;;;;;;3.83;1.83;;;-2.60;99.90;;;;;;5050680;28;20461;-70
2023/03/11 06:24:25;;;;;;;2.65;1.10;;;-2.50;99.90;;;;;;5046007;28;20071;-70
2023/03/11 06:26:51;;;;;;;3.47;1.40;;;-2.50;99.90;;;;;;5016277;28;20040;-70
2023/03/11 06:29:17;;;;;;;3.25;1.30;;;-2.50;99.90;;;;;;5042652;28;20037;-70
2023/03/11 06:31:42;;;;;;;3.95;1.30;;;-2.50;99.90;;;;;;5044176;28;20479;-70
2023/03/11 06:34:10;;;;;;;2.60;1.48;;;-2.40;99.90;;;;;;5042842;28;20067;-71
2023/03/11 06:36:35;;;;;;;6.65;1.85;;;-2.40;99.90;;;;;;5049419;28;20049;-71
2023/03/11 06:39:02;;;;;;;4.18;1.65;;;-2.30;99.90;;;;;;5019437;28;20072;-70
2023/03/11 06:41:28;;;;;;;9.75;2.00;;;-2.20;99.90;;;;;;5050350;28;20037;-71
2023/03/11 06:43:53;;;;;;;5.18;1.70;;;-2.10;99.90;;;;;;5028708;28;20095;-70
2023/03/11 06:46:21;;;;;;;5.35;2.13;;;-2.00;99.90;;;;;;5039638;28;20473;-70
2023/03/11 06:48:50;;;;;;;4.25;1.63;;;-2.00;99.90;;;;;;5044122;28;20511;-69
2023/03/11 06:51:17;;;;;;;6.28;2.05;;;-2.00;99.90;;;;;;5051950;28;20131;-69
2023/03/11 06:53:43;;;;;;;6.05;2.90;;;-1.90;99.90;;;;;;5044603;28;20091;-70
2023/03/11 06:56:10;;;;;;;4.53;1.35;;;-1.90;99.90;;;;;;5036355;28;20041;-70
2023/03/11 06:58:38;;;;;;;2.47;1.17;;;-1.90;99.90;;;;;;5040701;28;20095;-70
2023/03/11 07:01:05;;;;;;;4.40;1.33;;;-1.80;99.90;;;;;;5027992;28;20053;-70
2023/03/11 07:03:31;;;;;;;6.43;1.20;;;-1.80;99.90;;;;;;5044910;28;20036;-69
2023/03/11 07:05:57;;;;;;;2.03;1.17;;;-1.70;99.90;;;;;;5051138;28;20535;-69
2023/03/11 07:08:23;;;;;;;5.47;1.17;;;-1.50;99.90;;;;;;5050498;28;20091;-69
2023/03/11 07:11:09;;;;;;;5.18;1.27;;;-1.40;99.90;;;;;;5050619;28;20045;-70
2023/03/11 07:13:35;;;;;;;4.30;1.63;;;-1.30;99.90;;;;;;5030266;28;20045;-69
2023/03/11 07:16:07;;;;;;;3.05;1.10;;;-1.10;99.90;;;;;;5026574;28;20044;-69
2023/03/11 07:18:34;;;;;;;1.85;1.20;;;-0.90;99.90;;;;;;5042167;28;20416;-69
2023/03/11 07:21:05;;;;;;;2.92;1.45;;;-0.70;99.90;;;;;;5043909;28;20045;-70
2023/03/11 07:23:31;;;;;;;4.03;1.35;;;-0.50;99.90;;;;;;5039108;28;20059;-69
2023/03/11 07:25:57;;;;;;;4.20;1.48;;;-0.40;99.90;;;;;;5049722;28;20373;-70
2023/03/11 07:28:24;;;;;;;4.15;1.50;;;-0.20;99.90;;;;;;5042320;28;20051;-69
2023/03/11 07:30:50;;;;;;;6.28;1.10;;;-0.10;99.90;;;;;;5013716;28;20045;-70
2023/03/11 07:33:16;;;;;;;1.83;0.93;;;0.00;99.90;;;;;;5037092;28;20044;-68
2023/03/11 07:35:42;;;;;;;3.95;1.40;;;0.00;99.90;;;;;;5046407;28;20056;-69
2023/03/11 07:38:08;;;;;;;4.90;1.50;;;0.20;99.90;;;;;;5015832;28;20156;-69
2023/03/11 07:40:34;;;;;;;5.60;1.65;;;0.20;99.90;;;;;;5034548;28;20127;-68
2023/03/11 07:42:59;;;;;;;3.17;1.40;;;0.20;99.90;;;;;;5035400;28;20048;-68
2023/03/11 07:45:25;;;;;;;5.90;1.70;;;0.20;99.90;;;;;;5025375;28;20044;-69
2023/03/11 07:47:51;;;;;;;4.20;1.50;;;0.20;99.90;;;;;;5040480;28;20110;-69
2023/03/11 07:50:16;;;;;;;6.93;1.77;;;0.20;99.90;;;;;;5038123;28;20033;-69
2023/03/11 07:52:43;;;;;;;7.45;2.00;;;0.30;99.90;;;;;;5037174;28;20124;-69
2023/03/11 07:55:08;;;;;;;6.13;1.58;;;0.50;99.90;;;;;;5038254;28;20037;-69
2023/03/11 07:57:34;;;;;;;10.63;2.15;;;0.70;99.90;;;;;;5036852;28;22463;-68
2023/03/11 08:00:00;;;;;;;5.22;1.50;;;1.00;99.90;;;;;;5023744;28;20041;-69
2023/03/11 08:02:26;;;;;;;3.30;1.27;;;1.20;99.90;;;;;;5027430;28;20118;-70
2023/03/11 08:04:51;;;;;;;3.90;1.73;;;1.40;99.90;;;;;;5030030;28;20091;-66
2023/03/11 08:07:17;;;;;;;4.82;1.70;;;1.60;99.90;;;;;;5045771;28;20044;-67
2023/03/11 08:09:43;;;;;;;5.45;1.83;;;1.80;99.90;;;;;;5041927;28;20071;-66
2023/03/11 08:12:08;;;;;;;6.72;2.13;;;1.90;99.90;;;;;;5024035;28;20473;-66
2023/03/11 08:14:34;;;;;;;3.38;1.75;;;2.00;99.90;;;;;;5046856;28;20469;-66
2023/03/11 08:16:59;;;;;;;4.20;1.63;;;2.00;99.90;;;;;;5039586;28;20034;-66
2023/03/11 08:19:25;;;;;;;3.08;1.35;;;2.20;99.90;;;;;;5045463;28;20461;-67
2023/03/11 08:21:50;;;;;;;3.95;1.70;;;2.40;99.90;;;;;;5050143;28;20029;-67
2023/03/11 08:24:16;;;;;;;3.42;1.40;;;2.60;99.90;;;;;;5016883;28;20029;-67
2023/03/11 08:26:42;;;;;;;2.63;1.33;;;2.90;99.90;;;;;;5035834;28;20138;-67
2023/03/11 08:29:07;;;;;;;4.78;1.30;;;3.10;99.90;;;;;;5044894;28;20041;-67
2023/03/11 08:31:33;;;;;;;4.85;1.00;;;3.50;99.90;;;;;;5043768;28;20057;-66
2023/03/11 08:34:09;;;;;;;3.30;1.58;;;3.80;99.90;;;;;;5051683;28;20134;-67
2023/03/11 08:36:35;;;;;;;4.35;1.15;;;3.90;99.90;;;;;;5037255;28;20037;-67
2023/03/11 08:39:00;;;;;;;4.70;1.13;;;4.30;99.90;;;;;;5045344;28;20477;-68
2023/03/11 08:41:26;;;;;;;6.20;1.40;;;4.60;99.90;;;;;;5035995;28;20044;-68
2023/03/11 08:43:52;;;;;;;4.78;1.17;;;4.90;99.90;;;;;;5033619;28;20068;-68
2023/03/11 08:46:32;;;;;;;5.15;1.35;;;5.10;99.90;;;;;;5032456;28;20363;-68
2023/03/11 08:48:58;;;;;;;3.83;1.10;;;5.40;99.90;;;;;;5044412;28;20061;-69
2023/03/11 08:51:25;;;;;;;5.20;0.98;;;5.60;99.90;;;;;;5047620;28;20037;-68
2023/03/11 08:53:51;;;;;;;4.68;1.00;;;5.80;99.90;;;;;;5037897;28;20049;-69
2023/03/11 08:56:16;;;;;;;3.92;1.10;;;6.00;99.90;;;;;;5045611;28;20029;-69
2023/03/11 08:58:42;;;;;;;4.28;1.02;;;6.30;99.90;;;;;;5037157;28;20044;-69
2023/03/11 09:01:10;;;;;;;3.05;1.05;;;6.30;99.90;;;;;;5040249;28;20048;-69
2023/03/11 09:03:36;;;;;;;3.88;1.00;;;5.90;99.90;;;;;;5048429;28;20040;-70
2023/03/11 09:06:05;;;;;;;4.15;1.40;;;5.70;99.90;;;;;;5045095;28;20044;-71
2023/03/11 09:08:30;;;;;;;3.75;1.08;;;5.60;99.90;;;;;;5050641;28;20048;-70
2023/03/11 09:10:56;;;;;;;3.67;1.25;;;5.60;99.90;;;;;;5043473;28;20048;-69
2023/03/11 09:13:22;;;;;;;2.58;1.05;;;5.80;99.90;;;;;;5040275;28;20148;-70
2023/03/11 09:15:49;;;;;;;2.53;1.13;;;5.90;99.90;;;;;;5050346;28;20092;-69
2023/03/11 09:18:15;;;;;;;4.65;1.40;;;5.80;99.90;;;;;;5044663;28;20044;-70
2023/03/11 09:20:42;;;;;;;3.63;1.00;;;5.90;99.90;;;;;;5018008;28;20473;-69
2023/03/11 09:23:09;;;;;;;3.60;1.27;;;5.80;99.90;;;;;;5031696;28;20077;-69
2023/03/11 09:25:34;;;;;;;4.22;1.25;;;5.40;99.90;;;;;;5040677;28;20132;-69
2023/03/11 09:28:00;;;;;;;5.07;1.30;;;5.00;99.90;;;;;;5021091;28;20124;-68
2023/03/11 09:30:26;;;;;;;3.90;1.20;;;4.50;99.90;;;;;;5038807;28;20052;-68
2023/03/11 09:32:51;;;;;;;4.13;1.30;;;4.20;99.90;;;;;;5036133;28;20045;-67
2023/03/11 09:35:17;;;;;;;3.17;1.02;;;3.90;99.90;;;;;;5040918;28;20052;-68
2023/03/11 09:37:43;;;;;;;3.70;1.23;;;3.70;99.90;;;;;;5031683;28;20043;-66
2023/03/11 09:40:14;;;;;;;3.33;0.98;;;3.50;99.90;;;;;;5045462;28;20487;-67
2023/03/11 09:42:42;;;;;;;3.25;1.23;;;3.30;99.90;;;;;;5047246;28;20045;-66
2023/03/11 09:45:20;;;;;;;5.47;1.52;;;3.30;99.90;;;;;;5029065;28;20199;-65
2023/03/11 09:48:01;;;;;;;6.78;1.30;;;3.10;99.90;;;;;;5020973;28;20087;-65
2023/03/11 09:51:11;;;;;;;3.58;1.50;;;3.00;99.90;;;;;;5041420;28;20034;-65
2023/03/11 09:53:39;;;;;;;4.50;2.60;;;2.90;99.90;;;;;;5039439;28;20040;-65
2023/03/11 09:56:14;;;;;;;4.13;1.67;;;2.90;99.90;;;;;;5034445;28;20100;-64
2023/03/11 09:58:50;;;;;;;6.75;1.98;;;2.80;99.90;;;;;;5046368;28;20045;-64
2023/03/11 10:01:32;;;;;;;3.00;1.45;;;2.80;99.90;;;;;;5048438;28;20403;-64
2023/03/11 10:04:11;;;;;;;4.05;2.15;;;2.90;99.90;;;;;;5047328;28;20041;-63
2023/03/11 10:06:38;;;;;;;6.28;1.45;;;3.00;99.90;;;;;;5054743;28;20041;-64
2023/03/11 10:09:32;;;;;;;6.45;1.40;;;2.90;99.90;;;;;;5048247;28;20045;-64
2023/03/11 10:12:03;;;;;;;3.88;1.60;;;3.00;99.90;;;;;;5045871;28;20068;-66
2023/03/11 10:14:38;;;;;;;6.38;1.50;;;3.00;99.90;;;;;;5016788;28;20076;-67
2023/03/11 10:17:15;;;;;;;3.75;1.52;;;3.10;99.90;;;;;;5053225;28;20051;-65
2023/03/11 10:20:07;;;;;;;5.40;1.77;;;3.00;99.90;;;;;;5048602;28;20130;-66
2023/03/11 10:22:54;;;;;;;5.65;1.70;;;2.90;99.90;;;;;;5044598;28;20405;-67
2023/03/11 10:25:48;;;;;;;3.10;1.33;;;3.00;99.90;;;;;;5037310;28;20048;-66
2023/03/11 10:28:19;;;;;;;5.00;2.00;;;3.10;99.90;;;;;;5039578;28;20096;-66
2023/03/11 10:30:50;;;;;;;7.43;1.70;;;3.10;99.90;;;;;;5041641;28;20037;-64
2023/03/11 10:33:33;;;;;;;7.18;1.75;;;3.10;99.90;;;;;;5035660;28;20041;-66
2023/03/11 10:36:05;;;;;;;5.10;1.70;;;3.10;99.90;;;;;;5046686;28;20385;-66
2023/03/11 10:38:34;;;;;;;7.00;1.50;;;3.10;99.90;;;;;;5038058;28;20075;-66
2023/03/11 10:41:06;;;;;;;4.78;1.67;;;3.10;99.90;;;;;;5045120;28;20048;-66
2023/03/11 10:43:40;;;;;;;4.90;1.50;;;3.10;99.90;;;;;;5026804;28;20049;-66
2023/03/11 10:46:22;;;;;;;4.72;1.70;;;3.20;99.90;;;;;;5032435;28;20072;-66
2023/03/11 10:48:48;;;;;;;4.38;1.40;;;3.10;99.90;;;;;;5049941;28;20060;-67
2023/03/11 10:51:21;;;;;;;2.45;1.45;;;3.20;99.90;;;;;;5052514;28;20424;-68
2023/03/11 10:53:50;;;;;;;2.97;1.50;;;3.20;99.90;;;;;;5052485;28;20045;-66
2023/03/11 10:56:38;;;;;;;7.05;1.90;;;3.20;99.90;;;;;;5043779;28;20443;-66
2023/03/11 10:59:21;;;;;;;5.97;1.73;;;3.30;99.90;;;;;;5039857;28;20037;-67
2023/03/11 11:02:27;;;;;;;4.80;1.45;;;3.40;99.90;;;;;;5037902;28;20046;-69
2023/03/11 11:05:14;;;;;;;3.75;1.65;;;3.60;99.90;;;;;;5015428;28;20049;-67
2023/03/11 11:07:41;;;;;;;5.50;1.65;;;3.60;99.90;;;;;;5048718;28;20049;-66
2023/03/11 11:10:24;;;;;;;2.47;1.45;;;3.60;99.90;;;;;;5041653;28;20752;-65
2023/03/11 11:13:12;;;;;;;2.67;1.25;;;3.70;99.90;;;;;;5051349;28;20473;-64
2023/03/11 11:15:49;;;;;;;6.45;1.60;;;3.90;99.90;;;;;;5036197;28;20049;-64
2023/03/11 11:18:22;;;;;;;3.50;1.48;;;4.00;99.90;;;;;;5037391;28;20040;-65
2023/03/11 11:21:08;;;;;;;10.65;2.03;;;4.10;99.90;;;;;;5051071;28;20041;-64
2023/03/11 11:24:15;;;;;;;5.85;1.88;;;4.10;99.90;;;;;;5016562;28;20087;-66
2023/03/11 11:26:41;;;;;;;6.55;1.60;;;4.10;99.90;;;;;;5032854;28;20068;-65
2023/03/11 11:29:14;;;;;;;4.03;1.60;;;4.20;99.90;;;;;;5016525;28;20068;-64
2023/03/11 11:31:42;;;;;;;3.88;1.10;;;4.20;99.90;;;;;;5044255;28;20048;-65
2023/03/11 11:34:27;;;;;;;3.85;1.33;;;4.20;99.90;;;;;;5041091;28;20064;-65
2023/03/11 11:36:56;;;;;;;5.30;1.58;;;4.20;99.90;;;;;;5033117;28;20033;-65
2023/03/11 11:39:23;;;;;;;6.13;1.42;;;4.30;99.90;;;;;;5020623;28;20037;-67
2023/03/11 11:41:51;;;;;;;3.95;1.60;;;4.30;99.90;;;;;;5051903;28;20037;-67
2023/03/11 11:44:19;;;;;;;5.72;1.33;;;4.20;99.90;;;;;;5048930;28;20067;-67
2023/03/11 11:47:09;;;;;;;7.18;1.92;;;4.30;99.90;;;;;;5043408;28;20056;-69
2023/03/11 11:49:36;;;;;;;3.47;1.45;;;4.40;99.90;;;;;;5031907;28;20049;-69
2023/03/11 11:52:11;;;;;;;4.82;1.33;;;4.20;99.90;;;;;;5031556;28;20124;-68
2023/03/11 11:54:51;;;;;;;4.72;1.50;;;4.30;99.90;;;;;;5040631;28;20038;-69
2023/03/11 11:57:20;;;;;;;4.97;1.25;;;4.30;99.90;;;;;;5035304;28;20044;-70
2023/03/11 11:59:46;;;;;;;5.38;1.45;;;4.30;99.90;;;;;;5038297;28;20052;-69
2023/03/11 12:02:15;;;;;;;6.07;1.58;;;4.40;99.90;;;;;;5038512;28;20048;-69
2023/03/11 12:05:06;;;;;;;9.68;2.25;;;4.40;99.90;;;;;;5053696;28;20532;-71
2023/03/11 12:07:50;;;;;;;2.42;1.85;;;4.40;99.90;;;;;;5045300;28;20049;-69
2023/03/11 12:10:32;;;;;;;3.03;1.20;;;4.50;99.90;;;;;;5044022;28;20098;-70
2023/03/11 12:13:25;;;;;;;5.43;1.20;;;4.40;99.90;;;;;;5027723;28;20076;-69
2023/03/11 12:16:32;;;;;;;3.58;1.50;;;4.50;99.90;;;;;;5045876;28;20044;-69
2023/03/11 12:19:10;;;;;;;3.60;1.20;;;4.50;99.90;;;;;;5006236;28;20033;-70
2023/03/11 12:22:09;;;;;;;4.93;1.20;;;4.60;99.90;;;;;;5030435;28;20351;-72
2023/03/11 12:24:40;;;;;;;3.47;1.45;;;4.60;99.90;;;;;;5038583;28;20047;-69
2023/03/11 12:27:20;;;;;;;2.97;1.10;;;4.70;99.90;;;;;;5041500;28;20128;-70
2023/03/11 12:29:50;;;;;;;6.25;1.45;;;4.80;99.90;;;;;;5027562;28;20033;-70
2023/03/11 12:32:37;;;;;;;2.47;0.98;;;4.90;99.90;;;;;;5038440;28;20041;-69
2023/03/11 12:35:26;;;;;;;2.92;1.42;;;4.80;99.90;;;;;;5042042;28;20033;-70
2023/03/11 12:38:28;;;;;;;5.28;1.20;;;4.80;99.90;;;;;;5038146;28;20096;-70
2023/03/11 12:41:02;;;;;;;6.13;1.55;;;5.00;99.90;;;;;;5047929;28;20449;-69
2023/03/11 12:43:33;;;;;;;4.05;1.80;;;5.00;99.90;;;;;;5038942;28;20065;-70
2023/03/11 12:46:04;;;;;;;4.43;1.30;;;5.10;99.90;;;;;;5042921;28;20064;-69
2023/03/11 12:48:48;;;;;;;3.97;1.02;;;5.10;99.90;;;;;;5051655;28;20048;-71
2023/03/11 12:51:26;;;;;;;2.83;1.17;;;5.10;99.90;;;;;;5050851;28;20044;-68
2023/03/11 12:53:55;;;;;;;4.38;1.17;;;5.10;99.90;;;;;;5040135;28;20036;-70
2023/03/11 12:56:26;;;;;;;2.70;0.80;;;5.30;99.90;;;;;;5033939;28;20045;-68
2023/03/11 12:59:30;;;;;;;3.00;0.90;;;5.40;99.90;;;;;;5026458;28;20036;-69
2023/03/11 13:02:05;;;;;;;3.72;0.82;;;5.40;99.90;;;;;;5038494;28;20052;-68
2023/03/11 13:04:50;;;;;;;1.30;0.75;;;5.50;99.90;;;;;;5051392;28;20048;-66
2023/03/11 13:07:21;;;;;;;4.47;1.17;;;5.40;99.90;;;;;;5044167;28;20359;-67